createdAt,value
2018-07-09T00:02:10.967Z,24.31
2018-07-09T00:07:14.630Z,24.24
2018-07-09T00:12:18.283Z,24.23
2018-07-09T00:17:22.552Z,24.24
2018-07-09T00:22:26.285Z,24.20
2018-07-09T00:27:30.029Z,24.11
2018-07-09T00:32:33.772Z,24.05
2018-07-09T00:37:38.168Z,24.02
2018-07-09T00:42:41.907Z,23.92
2018-07-09T00:47:45.682Z,23.84
2018-07-09T00:52:49.495Z,23.90
2018-07-09T00:57:53.199Z,23.79
2018-07-09T01:02:56.890Z,23.80
2018-07-09T01:08:00.557Z,23.74
2018-07-09T01:13:04.266Z,23.66
2018-07-09T01:18:08.653Z,23.60
2018-07-09T01:23:12.320Z,23.42
2018-07-09T01:28:16.253Z,23.42
2018-07-09T01:33:19.943Z,23.35
2018-07-09T01:38:24.362Z,23.30
2018-07-09T01:43:28.048Z,23.27
2018-07-09T01:48:31.724Z,23.32
2018-07-09T01:53:35.394Z,23.21
2018-07-09T01:58:39.134Z,23.06
2018-07-09T02:03:42.831Z,23.16
2018-07-09T02:08:46.459Z,22.98
2018-07-09T02:13:50.128Z,22.91
2018-07-09T02:18:54.423Z,22.56
2018-07-09T02:23:58.084Z,22.77
2018-07-09T02:29:01.760Z,22.75
2018-07-09T02:34:05.571Z,22.65
2018-07-09T02:39:09.255Z,22.84
2018-07-09T02:44:13.770Z,22.51
2018-07-09T02:49:17.614Z,22.07
2018-07-09T02:54:21.217Z,21.72
2018-07-09T02:59:24.923Z,21.76
2018-07-09T03:04:28.598Z,21.62
2018-07-09T03:09:32.280Z,21.19
2018-07-09T03:14:36.091Z,21.32
2018-07-09T03:19:39.786Z,21.32
2018-07-09T03:24:43.692Z,21.04
2018-07-09T03:29:47.399Z,20.77
2018-07-09T03:34:51.033Z,21.03
2018-07-09T03:39:54.685Z,21.34
2018-07-09T03:44:58.375Z,21.23
2018-07-09T03:50:05.459Z,20.52
2018-07-09T03:55:09.211Z,20.41
2018-07-09T04:00:12.888Z,20.50
2018-07-09T04:05:16.539Z,20.40
2018-07-09T04:10:20.172Z,20.64
2018-07-09T04:15:23.822Z,20.12
2018-07-09T04:20:27.459Z,20.30
2018-07-09T04:25:31.111Z,20.38
2018-07-09T04:30:34.827Z,20.17
2018-07-09T04:35:38.479Z,20.19
2018-07-09T04:40:42.171Z,19.95
2018-07-09T04:45:45.854Z,19.78
2018-07-09T04:50:49.511Z,19.70
2018-07-09T04:55:53.252Z,19.57
2018-07-09T05:00:57.086Z,19.61
2018-07-09T05:06:00.807Z,19.74
2018-07-09T05:11:04.497Z,19.70
2018-07-09T05:16:08.224Z,19.75
2018-07-09T05:21:11.914Z,19.67
2018-07-09T05:26:15.623Z,19.56
2018-07-09T05:31:19.281Z,19.63
2018-07-09T05:36:22.958Z,19.56
2018-07-09T05:41:26.689Z,19.54
2018-07-09T05:46:30.403Z,19.44
2018-07-09T05:51:34.099Z,19.56
2018-07-09T05:56:37.746Z,19.59
2018-07-09T06:01:41.482Z,19.66
2018-07-09T06:06:45.146Z,19.73
2018-07-09T06:11:48.817Z,19.60
2018-07-09T06:16:52.507Z,19.76
2018-07-09T06:21:56.122Z,19.78
2018-07-09T06:26:59.766Z,19.90
2018-07-09T06:32:03.470Z,19.84
2018-07-09T06:37:07.205Z,19.56
2018-07-09T06:42:10.885Z,19.75
2018-07-09T06:47:14.608Z,19.74
2018-07-09T06:52:18.255Z,19.89
2018-07-09T06:57:21.963Z,20.01
2018-07-09T07:02:25.711Z,19.89
2018-07-09T07:07:29.331Z,20.16
2018-07-09T07:12:33.038Z,20.33
2018-07-09T07:17:37.132Z,20.25
2018-07-09T07:22:40.856Z,20.33
2018-07-09T07:27:45.035Z,20.58
2018-07-09T07:32:48.844Z,20.55
2018-07-09T07:37:52.570Z,20.48
2018-07-09T07:42:56.190Z,20.34
2018-07-09T07:47:59.948Z,20.32
2018-07-09T07:53:03.540Z,20.51
2018-07-09T07:58:09.171Z,20.45
2018-07-09T08:03:12.895Z,20.59
2018-07-09T08:08:16.506Z,20.79
2018-07-09T08:13:28.500Z,20.77
2018-07-09T08:18:24.036Z,20.98
2018-07-09T08:23:27.833Z,20.91
2018-07-09T08:28:31.430Z,20.97
2018-07-09T08:33:35.093Z,21.08
2018-07-09T08:38:39.292Z,21.22
2018-07-09T08:43:42.912Z,21.19
2018-07-09T08:48:47.085Z,21.25
2018-07-09T08:53:50.733Z,21.19
2018-07-09T08:58:54.467Z,21.15
2018-07-09T09:03:58.195Z,21.08
2018-07-09T09:09:01.971Z,21.30
2018-07-09T09:14:06.208Z,21.25
2018-07-09T09:19:09.924Z,21.20
2018-07-09T09:24:13.714Z,21.23
2018-07-09T09:29:17.282Z,21.21
2018-07-09T09:34:20.977Z,21.27
2018-07-09T09:39:24.549Z,21.27
2018-07-09T09:44:28.169Z,21.43
2018-07-09T09:49:32.423Z,21.55
2018-07-09T09:54:36.186Z,21.58
2018-07-09T09:59:40.023Z,21.67
2018-07-09T10:04:43.813Z,21.78
2018-07-09T10:09:47.575Z,21.99
2018-07-09T10:14:51.246Z,22.01
2018-07-09T10:19:54.886Z,22.03
2018-07-09T10:24:58.662Z,22.05
2018-07-09T10:30:03.856Z,22.10
2018-07-09T10:35:07.956Z,22.23
2018-07-09T10:40:11.722Z,22.31
2018-07-09T10:45:15.530Z,22.32
2018-07-09T10:50:19.399Z,22.43
2018-07-09T10:55:23.213Z,22.48
2018-07-09T11:00:27.667Z,22.56
2018-07-09T11:05:32.627Z,22.74
2018-07-09T11:10:36.784Z,22.75
2018-07-09T11:15:40.594Z,22.68
2018-07-09T11:20:44.295Z,22.57
2018-07-09T11:25:48.077Z,22.57
2018-07-09T11:30:51.805Z,22.63
2018-07-09T11:35:55.498Z,22.68
2018-07-09T11:40:59.330Z,22.78
2018-07-09T11:46:03.094Z,22.86
2018-07-09T11:51:06.959Z,22.88
2018-07-09T11:56:10.580Z,22.87
2018-07-09T12:01:14.299Z,22.87
2018-07-09T12:06:18.335Z,22.98
2018-07-09T12:11:22.098Z,23.01
2018-07-09T12:16:25.851Z,23.03
2018-07-09T12:21:29.535Z,23.09
2018-07-09T12:26:33.190Z,23.14
2018-07-09T12:31:36.850Z,23.32
2018-07-09T12:36:40.542Z,23.31
2018-07-09T12:41:44.384Z,23.37
2018-07-09T12:46:48.391Z,23.50
2018-07-09T12:51:52.263Z,23.53
2018-07-09T12:56:56.654Z,23.62
2018-07-09T13:02:00.910Z,23.65
2018-07-09T13:07:06.116Z,23.65
2018-07-09T13:12:10.804Z,23.75
2018-07-09T13:17:15.054Z,23.83
2018-07-09T13:22:19.073Z,23.96
2018-07-09T13:27:22.788Z,24.05
2018-07-09T13:32:26.546Z,23.93
2018-07-09T13:37:31.071Z,23.91
2018-07-09T13:42:34.818Z,23.90
2018-07-09T13:47:38.506Z,23.87
2018-07-09T13:52:42.194Z,23.94
2018-07-09T13:57:45.902Z,23.93
2018-07-09T14:02:49.626Z,23.93
2018-07-09T14:07:54.412Z,23.94
2018-07-09T14:13:11.813Z,23.92
2018-07-09T14:18:15.741Z,23.97
2018-07-09T14:23:20.081Z,23.98
2018-07-09T14:28:24.517Z,24.01
2018-07-09T14:33:28.529Z,23.98
2018-07-09T14:38:33.074Z,23.98
2018-07-09T14:43:36.924Z,24.14
2018-07-09T14:48:41.049Z,24.16
2018-07-09T14:53:44.805Z,24.23
2018-07-09T14:58:48.505Z,24.31
2018-07-09T15:03:52.888Z,24.23
2018-07-09T15:08:57.632Z,24.24
2018-07-09T15:14:02.289Z,24.42
2018-07-09T15:19:06.039Z,24.37
2018-07-09T15:24:09.787Z,24.36
2018-07-09T15:29:13.602Z,24.37
2018-07-09T15:34:17.853Z,24.39
2018-07-09T15:39:21.786Z,24.42
2018-07-09T15:44:25.508Z,24.45
2018-07-09T15:49:29.300Z,24.48
2018-07-09T15:54:33.839Z,24.52
2018-07-09T15:59:38.009Z,24.57
2018-07-09T16:04:42.262Z,24.65
2018-07-09T16:09:46.155Z,24.71
2018-07-09T16:14:49.866Z,24.78
2018-07-09T16:19:53.553Z,24.90
2018-07-09T16:24:58.410Z,24.82
2018-07-09T16:30:05.083Z,24.84
2018-07-09T16:35:10.285Z,24.93
2018-07-09T16:40:14.060Z,24.94
2018-07-09T16:45:17.743Z,24.89
2018-07-09T16:50:21.721Z,24.86
2018-07-09T17:00:34.507Z,24.87
2018-07-09T17:05:38.859Z,24.89
2018-07-09T17:10:43.671Z,24.97
2018-07-09T17:15:48.568Z,24.97
2018-07-09T17:20:52.337Z,24.98
2018-07-09T17:25:56.037Z,25.02
2018-07-09T17:30:59.911Z,25.00
2018-07-09T17:36:03.614Z,25.06
2018-07-09T17:41:07.625Z,25.16
2018-07-09T17:46:11.309Z,25.06
2018-07-09T17:51:15.329Z,24.96
2018-07-09T17:56:19.024Z,24.96
2018-07-09T18:01:25.626Z,25.04
2018-07-09T18:06:29.350Z,25.05
2018-07-09T18:11:33.093Z,24.99
2018-07-09T18:16:36.791Z,25.00
2018-07-09T18:21:40.512Z,25.00
2018-07-09T18:26:44.351Z,25.00
2018-07-09T18:31:48.630Z,25.02
2018-07-09T18:36:52.390Z,25.00
2018-07-09T18:41:56.175Z,25.00
2018-07-09T18:46:59.856Z,24.95
2018-07-09T18:52:04.772Z,24.95
2018-07-09T18:57:09.292Z,24.95
2018-07-09T19:02:13.245Z,24.95
2018-07-09T19:07:22.690Z,24.95
2018-07-09T19:12:30.773Z,24.93
2018-07-09T19:18:12.555Z,24.92
2018-07-09T19:23:15.148Z,24.90
2018-07-09T19:28:17.766Z,24.92
2018-07-09T19:33:20.254Z,24.92
2018-07-09T19:38:22.780Z,24.91
2018-07-09T19:43:25.400Z,25.02
2018-07-09T19:48:28.884Z,24.91
2018-07-09T21:21:26.687Z,24.92
2018-07-09T21:47:46.295Z,24.89
